createdAt,value
2019-04-07T00:01:45.077Z,8.69
2019-04-07T00:04:14.592Z,8.31
2019-04-07T00:06:44.070Z,8.31
2019-04-07T00:09:13.453Z,8.35
2019-04-07T00:11:42.907Z,8.35
2019-04-07T00:14:12.639Z,8.05
2019-04-07T00:16:42.634Z,7.94
2019-04-07T00:19:12.254Z,8.02
2019-04-07T00:21:42.305Z,7.87
2019-04-07T00:24:13.620Z,7.84
2019-04-07T00:26:43.325Z,7.97
2019-04-07T00:29:12.780Z,8.09
2019-04-07T00:31:42.231Z,7.98
2019-04-07T00:34:11.997Z,7.74
2019-04-07T00:36:41.979Z,8.03
2019-04-07T00:39:11.505Z,7.77
2019-04-07T00:41:40.913Z,7.56
2019-04-07T00:44:10.298Z,7.69
2019-04-07T00:46:39.820Z,7.67
2019-04-07T00:49:09.500Z,7.60
2019-04-07T00:51:38.992Z,7.59
2019-04-07T00:54:08.503Z,7.47
2019-04-07T00:56:37.893Z,7.06
2019-04-07T00:59:07.711Z,7.03
2019-04-07T01:01:37.239Z,6.78
2019-04-07T01:04:06.743Z,6.80
2019-04-07T01:06:36.133Z,6.59
2019-04-07T01:09:09.126Z,6.42
2019-04-07T01:11:38.540Z,6.47
2019-04-07T01:14:08.214Z,6.78
2019-04-07T01:16:37.636Z,6.59
2019-04-07T01:19:07.344Z,6.61
2019-04-07T01:21:36.861Z,6.32
2019-04-07T01:24:06.536Z,6.40
2019-04-07T01:26:37.176Z,6.24
2019-04-07T01:29:06.652Z,5.98
2019-04-07T01:31:36.245Z,5.93
2019-04-07T01:34:06.046Z,5.84
2019-04-07T01:36:36.025Z,5.89
2019-04-07T01:39:08.730Z,6.22
2019-04-07T01:41:39.705Z,5.86
2019-04-07T01:44:14.369Z,5.74
2019-04-07T01:46:47.093Z,5.40
2019-04-07T01:49:18.381Z,5.51
2019-04-07T01:51:49.677Z,5.65
2019-04-07T01:54:37.233Z,5.47
2019-04-07T01:57:20.256Z,5.41
2019-04-07T01:59:58.226Z,5.43
2019-04-07T02:02:36.693Z,5.38
2019-04-07T02:05:25.494Z,5.66
2019-04-07T02:07:56.635Z,5.33
2019-04-07T02:10:27.626Z,5.27
2019-04-07T02:13:02.069Z,5.33
2019-04-07T02:15:42.164Z,5.06
2019-04-07T02:18:13.577Z,4.90
2019-04-07T02:21:06.234Z,5.28
2019-04-07T02:23:47.368Z,5.29
2019-04-07T02:26:34.710Z,5.10
2019-04-07T02:29:21.218Z,4.83
2019-04-07T02:32:09.829Z,4.45
2019-04-07T02:34:57.364Z,4.53
2019-04-07T02:37:44.832Z,4.74
2019-04-07T02:40:16.179Z,5.08
2019-04-07T02:42:48.329Z,5.03
2019-04-07T02:45:22.325Z,4.87
2019-04-07T02:47:59.754Z,5.30
2019-04-07T02:50:34.758Z,4.99
2019-04-07T02:53:18.042Z,4.84
2019-04-07T02:55:49.063Z,5.01
2019-04-07T02:58:25.847Z,4.44
2019-04-07T03:00:57.730Z,4.53
2019-04-07T03:03:29.969Z,4.67
2019-04-07T03:06:01.963Z,4.84
2019-04-07T03:08:45.332Z,4.77
2019-04-07T03:11:16.431Z,4.92
2019-04-07T03:13:54.286Z,4.88
2019-04-07T03:16:35.382Z,4.47
2019-04-07T03:19:09.470Z,4.47
2019-04-07T03:21:46.816Z,4.14
2019-04-07T03:24:21.049Z,4.06
2019-04-07T03:26:58.007Z,4.10
2019-04-07T03:29:29.053Z,4.42
2019-04-07T03:32:05.421Z,4.20
2019-04-07T03:34:53.233Z,4.49
2019-04-07T03:37:34.408Z,4.52
2019-04-07T03:40:11.631Z,4.89
2019-04-07T03:42:43.608Z,4.98
2019-04-07T03:45:17.842Z,5.61
2019-04-07T03:47:50.491Z,5.31
2019-04-07T03:50:21.820Z,5.17
2019-04-07T03:53:02.911Z,5.21
2019-04-07T03:55:36.694Z,5.01
2019-04-07T03:58:12.274Z,4.46
2019-04-07T04:01:13.819Z,4.58
2019-04-07T04:04:02.185Z,4.41
2019-04-07T04:06:49.832Z,4.31
2019-04-07T04:09:39.091Z,4.52
2019-04-07T04:12:21.308Z,4.51
2019-04-07T04:15:00.031Z,4.67
2019-04-07T04:17:30.667Z,4.61
2019-04-07T04:20:00.094Z,5.17
2019-04-07T04:22:30.681Z,4.83
2019-04-07T04:25:00.943Z,4.84
2019-04-07T04:27:31.254Z,5.63
2019-04-07T04:30:00.972Z,5.10
2019-04-07T04:32:30.988Z,4.81
2019-04-07T04:35:00.927Z,4.98
2019-04-07T04:37:41.233Z,5.04
2019-04-07T04:40:01.693Z,4.92
2019-04-07T04:42:31.246Z,5.02
2019-04-07T04:45:00.766Z,4.86
2019-04-07T04:47:31.113Z,5.12
2019-04-07T04:50:02.006Z,5.12
2019-04-07T04:52:31.835Z,5.09
2019-04-07T04:55:02.013Z,5.64
2019-04-07T04:57:32.066Z,5.25
2019-04-07T05:00:02.187Z,5.33
2019-04-07T05:02:33.681Z,5.84
2019-04-07T05:05:04.006Z,5.55
2019-04-07T05:07:47.909Z,5.21
2019-04-07T05:10:06.839Z,5.59
2019-04-07T05:12:36.928Z,5.61
2019-04-07T05:15:07.682Z,6.16
2019-04-07T05:17:38.056Z,6.15
2019-04-07T05:20:08.056Z,5.61
2019-04-07T05:22:38.001Z,5.61
2019-04-07T05:25:08.475Z,5.76
2019-04-07T05:27:38.278Z,6.01
2019-04-07T05:30:08.064Z,6.01
2019-04-07T05:32:37.932Z,5.91
2019-04-07T05:35:08.831Z,6.46
2019-04-07T05:37:38.487Z,6.86
2019-04-07T05:40:08.256Z,5.86
2019-04-07T05:42:37.966Z,5.86
2019-04-07T05:45:07.657Z,5.96
2019-04-07T05:47:37.638Z,5.82
2019-04-07T05:50:07.246Z,5.97
2019-04-07T05:52:39.493Z,6.29
2019-04-07T05:55:08.886Z,6.38
2019-04-07T05:57:38.768Z,6.07
2019-04-07T06:00:15.601Z,6.62
2019-04-07T06:02:42.943Z,5.49
2019-04-07T06:05:12.443Z,5.77
2019-04-07T06:07:42.415Z,5.65
2019-04-07T06:10:13.365Z,6.31
2019-04-07T06:12:46.826Z,6.09
2019-04-07T06:15:17.722Z,5.62
2019-04-07T06:17:45.748Z,6.40
2019-04-07T06:20:17.516Z,6.50
2019-04-07T06:22:46.970Z,6.46
2019-04-07T06:25:17.162Z,6.86
2019-04-07T06:27:46.760Z,6.76
2019-04-07T06:30:17.582Z,6.77
2019-04-07T06:32:47.309Z,7.22
2019-04-07T06:35:16.984Z,6.36
2019-04-07T06:37:47.737Z,6.69
2019-04-07T06:40:22.277Z,6.68
2019-04-07T06:42:56.837Z,6.17
2019-04-07T06:45:30.792Z,6.83
2019-04-07T06:48:06.899Z,6.98
2019-04-07T06:50:47.387Z,7.20
2019-04-07T06:53:26.875Z,7.00
2019-04-07T06:56:14.323Z,6.71
2019-04-07T06:58:48.324Z,7.00
2019-04-07T07:01:32.296Z,7.25
2019-04-07T07:04:19.946Z,7.56
2019-04-07T07:07:09.803Z,7.89
2019-04-07T07:09:43.453Z,7.14
2019-04-07T07:12:32.835Z,8.12
2019-04-07T07:15:15.534Z,6.89
2019-04-07T07:17:48.597Z,7.75
2019-04-07T07:20:28.780Z,7.72
2019-04-07T07:23:00.768Z,8.08
2019-04-07T07:25:32.096Z,8.98
2019-04-07T07:28:01.682Z,8.29
2019-04-07T07:30:31.540Z,9.11
2019-04-07T07:33:00.993Z,9.97
2019-04-07T07:35:30.448Z,10.17
2019-04-07T07:37:59.855Z,10.85
2019-04-07T07:40:29.898Z,11.62
2019-04-07T07:42:59.560Z,11.59
2019-04-07T07:45:28.990Z,12.15
2019-04-07T07:47:58.377Z,12.07
2019-04-07T07:50:28.492Z,12.04
2019-04-07T07:52:58.211Z,11.21
2019-04-07T07:55:28.522Z,11.60
2019-04-07T07:57:59.331Z,12.55
2019-04-07T08:00:28.785Z,13.41
2019-04-07T08:02:58.323Z,12.73
2019-04-07T08:05:31.736Z,12.89
2019-04-07T08:07:59.380Z,13.42
2019-04-07T08:10:29.117Z,14.10
2019-04-07T08:12:58.614Z,14.57
2019-04-07T08:15:32.113Z,13.55
2019-04-07T08:18:03.204Z,14.24
2019-04-07T08:20:30.634Z,14.85
2019-04-07T08:23:00.671Z,14.58
2019-04-07T08:25:31.875Z,14.31
2019-04-07T08:28:03.618Z,13.99
2019-04-07T08:30:32.886Z,14.92
2019-04-07T08:33:03.398Z,15.00
2019-04-07T08:35:35.651Z,14.42
2019-04-07T08:38:04.632Z,15.80
2019-04-07T08:40:36.534Z,15.89
2019-04-07T08:43:05.152Z,16.33
2019-04-07T08:45:35.051Z,16.44
2019-04-07T08:48:05.016Z,15.93
2019-04-07T08:50:35.077Z,16.26
2019-04-07T08:53:04.436Z,17.25
2019-04-07T08:55:34.538Z,14.98
2019-04-07T08:58:05.590Z,16.43
2019-04-07T09:00:37.223Z,14.73
2019-04-07T09:03:12.019Z,14.76
2019-04-07T09:05:37.757Z,16.29
2019-04-07T09:08:07.434Z,16.67
2019-04-07T09:10:39.521Z,17.96
2019-04-07T09:13:09.546Z,17.76
2019-04-07T09:15:43.054Z,18.99
2019-04-07T09:18:15.246Z,17.88
2019-04-07T09:20:52.941Z,15.71
2019-04-07T09:23:35.954Z,17.14
2019-04-07T09:26:10.124Z,16.70
2019-04-07T09:28:45.380Z,16.97
2019-04-07T09:31:23.289Z,16.08
2019-04-07T09:34:06.025Z,17.97
2019-04-07T09:36:40.683Z,16.84
2019-04-07T09:39:12.348Z,16.92
2019-04-07T09:41:46.224Z,16.58
2019-04-07T09:44:22.979Z,15.90
2019-04-07T09:47:02.527Z,16.48
2019-04-07T09:49:52.573Z,17.18
2019-04-07T09:52:31.852Z,16.41
2019-04-07T09:55:15.033Z,16.27
2019-04-07T09:58:07.998Z,15.24
2019-04-07T10:00:43.377Z,15.49
2019-04-07T10:03:19.309Z,17.02
2019-04-07T10:05:55.937Z,17.00
2019-04-07T10:08:30.384Z,16.67
2019-04-07T10:11:01.420Z,17.34
2019-04-07T10:13:41.738Z,16.58
2019-04-07T10:16:13.269Z,16.70
2019-04-07T10:19:00.714Z,17.62
2019-04-07T10:21:35.007Z,17.68
2019-04-07T10:24:24.640Z,19.82
2019-04-07T10:26:56.279Z,17.01
2019-04-07T10:29:43.886Z,20.75
2019-04-07T10:32:23.034Z,20.23
2019-04-07T10:35:06.891Z,20.17
2019-04-07T10:37:38.009Z,19.72
2019-04-07T10:40:23.348Z,18.88
2019-04-07T10:42:55.483Z,19.87
2019-04-07T10:45:27.160Z,18.08
2019-04-07T10:48:07.996Z,18.37
2019-04-07T10:50:48.068Z,17.91
2019-04-07T10:53:22.739Z,17.95
2019-04-07T10:55:54.228Z,17.98
2019-04-07T10:58:34.881Z,17.31
2019-04-07T11:04:07.653Z,18.52
2019-04-07T11:06:41.655Z,17.25
2019-04-07T11:09:28.378Z,18.10
2019-04-07T11:12:00.056Z,18.98
2019-04-07T11:14:31.227Z,18.60
2019-04-07T11:17:08.122Z,19.65
2019-04-07T11:19:39.793Z,20.40
2019-04-07T11:22:26.605Z,18.56
2019-04-07T11:25:09.723Z,18.76
2019-04-07T11:27:52.883Z,21.45
2019-04-07T11:30:24.512Z,19.94
2019-04-07T11:33:11.803Z,21.10
2019-04-07T11:35:43.305Z,20.61
2019-04-07T11:38:31.055Z,20.89
2019-04-07T11:41:02.543Z,21.34
2019-04-07T11:43:46.914Z,20.99
2019-04-07T11:46:18.759Z,22.77
2019-04-07T11:48:50.410Z,21.19
2019-04-07T11:51:33.565Z,22.11
2019-04-07T11:54:19.774Z,21.68
2019-04-07T11:56:57.332Z,21.18
2019-04-07T12:50:17.386Z,21.88
2019-04-07T12:53:02.167Z,22.27
2019-04-07T12:55:55.971Z,20.18
2019-04-07T12:58:25.491Z,21.34
2019-04-07T13:01:00.746Z,20.64
2019-04-07T13:03:35.246Z,21.96
2019-04-07T13:06:12.131Z,20.52
2019-04-07T13:08:58.160Z,20.39
2019-04-07T13:11:45.684Z,20.36
2019-04-07T13:14:32.398Z,20.77
2019-04-07T13:17:12.670Z,20.87
2019-04-07T13:19:53.429Z,19.61
2019-04-07T13:22:34.475Z,19.49
2019-04-07T13:25:11.872Z,19.11
2019-04-07T13:27:48.416Z,18.68
2019-04-07T13:30:27.120Z,18.81
2019-04-07T13:33:08.097Z,19.64
2019-04-07T13:35:51.847Z,20.49
2019-04-07T13:38:38.942Z,19.30
2019-04-07T13:41:21.615Z,18.01
2019-04-07T13:44:08.857Z,18.47
2019-04-07T13:46:59.076Z,18.01
2019-04-07T13:49:45.941Z,17.59
2019-04-07T13:52:23.081Z,17.69
2019-04-07T13:55:09.328Z,17.89
2019-04-07T13:57:43.191Z,18.30
2019-04-07T14:00:30.633Z,18.17
2019-04-07T14:03:07.842Z,18.24
2019-04-07T14:05:40.385Z,18.14
2019-04-07T14:08:17.591Z,17.83
2019-04-07T14:10:49.279Z,17.25
2019-04-07T14:13:21.016Z,17.46
2019-04-07T14:15:58.608Z,17.48
2019-04-07T14:18:43.778Z,17.11
2019-04-07T14:21:26.441Z,17.01
2019-04-07T14:24:13.392Z,17.18
2019-04-07T14:26:54.247Z,17.37
2019-04-07T14:29:43.063Z,16.72
2019-04-07T14:32:19.701Z,16.57
2019-04-07T14:35:02.452Z,16.45
2019-04-07T14:37:34.090Z,16.50
2019-04-07T14:40:21.391Z,16.48
2019-04-07T14:42:55.517Z,16.76
2019-04-07T14:45:30.032Z,16.59
2019-04-07T14:48:13.469Z,16.30
2019-04-07T14:50:57.112Z,16.79
2019-04-07T14:53:40.876Z,16.46
2019-04-07T14:56:12.145Z,16.55
2019-04-07T14:58:45.401Z,16.14
2019-04-07T15:01:16.025Z,16.44
2019-04-07T15:03:45.845Z,16.45
2019-04-07T15:06:16.537Z,16.37
2019-04-07T15:08:56.515Z,16.63
2019-04-07T15:11:42.369Z,16.69
2019-04-07T15:14:12.781Z,16.11
2019-04-07T15:16:43.823Z,16.09
2019-04-07T15:19:13.736Z,16.18
2019-04-07T15:21:43.336Z,16.59
2019-04-07T15:24:14.601Z,15.90
2019-04-07T15:26:46.959Z,16.11
2019-04-07T15:29:15.792Z,16.58
2019-04-07T15:31:49.055Z,16.14
2019-04-07T15:34:16.409Z,16.57
2019-04-07T15:36:48.008Z,16.34
2019-04-07T15:39:17.024Z,16.01
2019-04-07T15:41:47.795Z,16.28
2019-04-07T15:44:17.247Z,16.01
2019-04-07T15:46:51.574Z,15.87
2019-04-07T15:49:18.439Z,16.10
2019-04-07T15:51:48.702Z,15.79
2019-04-07T15:54:21.498Z,15.33
2019-04-07T15:56:50.150Z,15.15
2019-04-07T15:59:20.628Z,15.07
2019-04-07T16:01:49.962Z,15.08
2019-04-07T16:04:25.840Z,15.18
2019-04-07T16:06:52.577Z,15.28
2019-04-07T16:09:33.418Z,15.24
2019-04-07T16:11:53.333Z,15.28
2019-04-07T16:14:23.091Z,16.03
2019-04-07T16:16:53.642Z,15.52
2019-04-07T16:19:36.497Z,15.30
2019-04-07T16:21:55.136Z,15.42
2019-04-07T16:24:24.572Z,14.97
2019-04-07T16:26:54.699Z,14.52
2019-04-07T16:29:24.075Z,14.59
2019-04-07T16:31:55.746Z,14.39
2019-04-07T16:34:24.560Z,15.62
2019-04-07T16:36:57.237Z,15.84
2019-04-07T16:39:25.017Z,15.25
2019-04-07T16:41:54.392Z,15.09
2019-04-07T16:44:24.492Z,14.34
2019-04-07T16:46:56.470Z,14.34
2019-04-07T16:49:25.739Z,14.58
2019-04-07T16:51:58.278Z,14.15
2019-04-07T16:54:26.610Z,14.21
2019-04-07T16:56:58.306Z,14.25
2019-04-07T16:59:27.551Z,14.40
2019-04-07T17:01:57.995Z,14.38
2019-04-07T17:04:27.561Z,14.25
2019-04-07T17:07:03.273Z,15.08
2019-04-07T17:09:29.109Z,14.96
2019-04-07T17:11:58.821Z,14.44
2019-04-07T17:14:32.102Z,14.38
2019-04-07T17:17:00.180Z,13.94
2019-04-07T17:19:30.114Z,13.87
2019-04-07T17:22:01.827Z,13.83
2019-04-07T17:24:31.280Z,13.84
2019-04-07T17:27:02.937Z,13.70
2019-04-07T17:29:32.352Z,13.50
2019-04-07T17:32:02.833Z,13.65
2019-04-07T17:34:33.637Z,13.95
2019-04-07T17:37:03.999Z,14.03
2019-04-07T17:39:42.461Z,13.45
2019-04-07T17:42:12.629Z,13.29
2019-04-07T17:44:59.929Z,13.29
2019-04-07T17:47:43.331Z,13.24
2019-04-07T17:50:17.918Z,13.62
2019-04-07T17:52:48.949Z,13.75
2019-04-07T17:55:32.065Z,13.43
2019-04-07T17:58:19.067Z,12.96
2019-04-07T18:01:04.865Z,13.29
2019-04-07T18:03:44.169Z,13.18
2019-04-07T18:06:32.098Z,13.26
2019-04-07T18:09:22.259Z,12.99
2019-04-07T18:12:12.795Z,12.90
2019-04-07T18:14:44.690Z,13.18
2019-04-07T18:17:22.618Z,13.15
2019-04-07T18:19:53.744Z,13.00
2019-04-07T18:22:42.263Z,12.69
2019-04-07T18:25:16.300Z,12.85
2019-04-07T18:27:48.403Z,12.66
2019-04-07T18:30:22.445Z,12.63
2019-04-07T18:33:15.562Z,12.76
2019-04-07T18:35:45.239Z,13.05
2019-04-07T18:38:16.262Z,12.85
2019-04-07T18:40:47.290Z,12.78
2019-04-07T18:43:24.540Z,12.79
2019-04-07T18:45:55.856Z,12.81
2019-04-07T18:48:28.826Z,12.89
2019-04-07T18:51:17.767Z,12.56
2019-04-07T18:53:52.008Z,12.42
2019-04-07T18:56:23.047Z,12.52
2019-04-07T18:58:54.639Z,12.69
2019-04-07T19:01:34.213Z,12.49
2019-04-07T19:04:08.260Z,12.55
2019-04-07T19:06:57.778Z,12.48
2019-04-07T19:09:33.134Z,12.38
2019-04-07T19:12:20.470Z,12.67
2019-04-07T19:15:00.828Z,12.70
2019-04-07T19:17:25.507Z,12.81
2019-04-07T19:19:59.532Z,12.77
2019-04-07T19:22:37.015Z,12.59
2019-04-07T19:25:11.613Z,12.31
2019-04-07T19:28:02.374Z,12.21
2019-04-07T19:30:31.011Z,12.08
2019-04-07T19:33:02.482Z,12.46
2019-04-07T19:35:51.937Z,12.37
2019-04-07T19:38:29.226Z,12.19
2019-04-07T19:41:00.452Z,12.27
2019-04-07T19:43:34.918Z,12.34
2019-04-07T19:46:07.597Z,12.24
2019-04-07T19:48:55.520Z,12.18
2019-04-07T19:51:45.833Z,12.19
2019-04-07T19:54:19.535Z,12.05
2019-04-07T19:57:02.992Z,11.54
2019-04-07T19:59:50.657Z,11.56
2019-04-07T20:02:39.102Z,11.82
2019-04-07T20:05:19.090Z,11.88
2019-04-07T20:07:51.258Z,11.92
2019-04-07T20:10:38.186Z,12.16
2019-04-07T20:13:44.570Z,11.89
2019-04-07T20:16:20.388Z,12.18
2019-04-07T20:18:51.671Z,11.76
2019-04-07T20:21:41.191Z,11.71
2019-04-07T20:24:11.495Z,11.83
2019-04-07T20:26:53.142Z,12.03
2019-04-07T20:29:43.787Z,11.63
2019-04-07T20:32:15.122Z,11.28
2019-04-07T20:34:54.934Z,11.32
2019-04-07T20:37:41.189Z,11.18
2019-04-07T20:40:12.402Z,11.20
2019-04-07T20:42:46.354Z,11.32
2019-04-07T20:45:23.181Z,11.29
2019-04-07T20:48:01.613Z,11.46
2019-04-07T20:50:48.663Z,11.87
2019-04-07T20:53:38.534Z,11.45
2019-04-07T20:56:25.986Z,11.45
2019-04-07T20:59:09.845Z,11.47
2019-04-07T21:01:43.875Z,11.25
2019-04-07T21:04:17.978Z,11.13
2019-04-07T21:06:59.752Z,11.22
2019-04-07T21:09:42.722Z,11.44
2019-04-07T21:12:17.350Z,11.43
2019-04-07T21:14:55.078Z,11.35
2019-04-07T21:17:37.873Z,11.40
2019-04-07T21:20:15.024Z,11.40
2019-04-07T21:22:46.533Z,11.43
2019-04-07T21:25:21.591Z,11.37
2019-04-07T21:27:52.813Z,11.28
2019-04-07T21:30:38.830Z,11.12
2019-04-07T21:33:26.960Z,11.09
2019-04-07T21:36:06.422Z,10.86
2019-04-07T21:38:55.094Z,10.85
2019-04-07T21:41:25.318Z,10.57
2019-04-07T21:43:57.337Z,10.61
2019-04-07T21:46:29.136Z,10.54
2019-04-07T21:49:06.080Z,10.39
2019-04-07T21:51:39.912Z,10.51
2019-04-07T21:54:19.632Z,10.40
2019-04-07T21:57:00.235Z,10.30
2019-04-07T21:59:49.953Z,10.16
2019-04-07T22:02:23.958Z,10.15
2019-04-07T22:05:04.230Z,10.12
2019-04-07T22:07:41.749Z,10.21
2019-04-07T22:10:13.682Z,10.29
2019-04-07T22:12:43.081Z,10.25
2019-04-07T22:15:14.180Z,9.99
2019-04-07T22:17:44.107Z,10.19
2019-04-07T22:20:17.774Z,10.15
2019-04-07T22:22:45.300Z,10.62
2019-04-07T22:25:18.536Z,10.30
2019-04-07T22:27:48.411Z,10.48
2019-04-07T22:30:18.573Z,10.25
2019-04-07T22:32:50.953Z,10.24
2019-04-07T22:35:19.377Z,10.39
2019-04-07T22:37:50.251Z,10.45
2019-04-07T22:40:21.292Z,10.26
2019-04-07T22:42:50.775Z,10.21
2019-04-07T22:45:25.109Z,10.34
2019-04-07T22:47:52.875Z,10.61
2019-04-07T22:50:23.420Z,10.81
2019-04-07T22:52:53.352Z,10.76
2019-04-07T22:55:23.709Z,10.45
2019-04-07T22:57:54.170Z,10.37
2019-04-07T23:00:25.331Z,10.47
2019-04-07T23:02:55.335Z,10.21
2019-04-07T23:05:25.629Z,10.04
2019-04-07T23:07:55.077Z,10.09
2019-04-07T23:10:25.166Z,10.27
2019-04-07T23:12:55.232Z,10.57
2019-04-07T23:15:37.248Z,11.36
2019-04-07T23:17:57.627Z,10.70
2019-04-07T23:20:28.992Z,10.70
2019-04-07T23:22:58.473Z,10.68
2019-04-07T23:25:28.104Z,10.48
2019-04-07T23:27:58.455Z,10.34
2019-04-07T23:30:29.787Z,10.10
2019-04-07T23:32:59.187Z,10.30
2019-04-07T23:35:28.843Z,9.93
2019-04-07T23:37:58.244Z,9.63
2019-04-07T23:40:28.092Z,9.35
2019-04-07T23:42:57.501Z,9.30
2019-04-07T23:45:27.390Z,9.18
2019-04-07T23:47:56.883Z,9.23
2019-04-07T23:50:27.240Z,9.23
2019-04-07T23:52:58.197Z,9.29
2019-04-07T23:55:27.603Z,8.85
2019-04-07T23:57:56.978Z,8.65
